Time;durP1;ratioP1;P1;durP2;ratioP2;P2;SDS_P1;SDS_P2;PMS_P1;PMS_P2;Temp;Humidity;BMP_temperature;BMP_pressure;BME280_temperature;BME280_humidity;BME280_pressure;Samples;Min_cycle;Max_cycle;Signal;HPM_P1;HPM_P2
2023/04/24 00:01:29;;;;;;;12.15;3.13;;;;;;;;;;5004212;28;20055;-71
2023/04/24 00:03:55;;;;;;;12.00;7.15;;;;;;;;;;5006218;28;20045;-70
2023/04/24 00:06:23;;;;;;;8.32;5.00;;;;;;;;;;5008100;28;20097;-69
2023/04/24 00:08:48;;;;;;;7.55;2.70;;;;;;;;;;5005403;28;20041;-70
2023/04/24 00:11:14;;;;;;;6.75;3.10;;;;;;;;;;5037922;28;20037;-70
2023/04/24 00:13:39;;;;;;;12.93;5.28;;;;;;;;;;5037385;28;20034;-72
2023/04/24 00:16:05;;;;;;;10.55;3.97;;;;;;;;;;5006537;28;20045;-70
2023/04/24 00:18:30;;;;;;;13.07;5.22;;;;;;;;;;5006682;28;20690;-71
2023/04/24 00:20:56;;;;;;;20.30;7.97;;;;;;;;;;5021245;28;20045;-70
2023/04/24 00:23:21;;;;;;;18.77;6.80;;;;;;;;;;5038922;28;20106;-70
2023/04/24 00:25:46;;;;;;;14.10;6.18;;;;;;;;;;5038873;28;20517;-71
2023/04/24 00:28:11;;;;;;;24.80;8.45;;;;;;;;;;5010046;28;20052;-69
2023/04/24 00:30:39;;;;;;;26.40;8.23;;;;;;;;;;5017873;28;20061;-69
2023/04/24 00:33:05;;;;;;;26.35;9.02;;;;;;;;;;4986070;28;20194;-69
2023/04/24 00:35:30;;;;;;;29.63;9.15;;;;;;;;;;4986834;28;20038;-70
2023/04/24 00:37:55;;;;;;;34.53;9.63;;;;;;;;;;5018054;28;20121;-70
2023/04/24 00:40:20;;;;;;;32.58;10.60;;;;;;;;;;4987167;28;20611;-70
2023/04/24 00:42:46;;;;;;;35.88;11.85;;;;;;;;;;4987872;28;20045;-71
2023/04/24 00:45:12;;;;;;;41.30;11.30;;;;;;;;;;4985058;28;20096;-70
2023/04/24 00:47:38;;;;;;;41.47;11.98;;;;;;;;;;5018154;28;20061;-70
2023/04/24 00:50:06;;;;;;;42.05;12.75;;;;;;;;;;5042095;28;20037;-70
2023/04/24 00:52:36;;;;;;;43.47;13.85;;;;;;;;;;5010836;28;20883;-69
2023/04/24 00:55:02;;;;;;;49.53;14.65;;;;;;;;;;5014685;28;20042;-69
2023/04/24 00:57:27;;;;;;;52.10;14.55;;;;;;;;;;5007364;28;20056;-69
2023/04/24 00:59:53;;;;;;;46.47;15.32;;;;;;;;;;5029090;28;20182;-69
2023/04/24 01:02:22;;;;;;;52.92;15.02;;;;;;;;;;5041742;28;20042;-69
2023/04/24 01:04:50;;;;;;;54.83;17.17;;;;;;;;;;5041170;28;20067;-70
2023/04/24 01:07:16;;;;;;;66.07;18.48;;;;;;;;;;5009889;28;20682;-69
2023/04/24 01:09:44;;;;;;;60.58;17.67;;;;;;;;;;5011744;28;20079;-70
2023/04/24 01:12:09;;;;;;;57.35;16.88;;;;;;;;;;5040792;28;20118;-69
2023/04/24 01:14:34;;;;;;;76.68;18.70;;;;;;;;;;5010851;28;20073;-67
2023/04/24 01:17:00;;;;;;;60.95;17.20;;;;;;;;;;5010229;28;20754;-69
2023/04/24 01:19:25;;;;;;;58.33;15.23;;;;;;;;;;5010606;28;20057;-69
2023/04/24 01:21:53;;;;;;;54.75;16.10;;;;;;;;;;5016593;28;20116;-70
2023/04/24 01:24:19;;;;;;;57.97;15.88;;;;;;;;;;5008545;28;20068;-70
2023/04/24 01:26:45;;;;;;;73.03;15.18;;;;;;;;;;5023496;28;20054;-69
2023/04/24 01:29:10;;;;;;;40.33;10.60;;;;;;;;;;5009571;28;20041;-70
2023/04/24 01:31:36;;;;;;;25.20;8.48;;;;;;;;;;5010099;28;20044;-70
2023/04/24 01:34:02;;;;;;;39.65;8.98;;;;;;;;;;5010474;28;20037;-69
2023/04/24 01:36:28;;;;;;;42.72;9.18;;;;;;;;;;5009162;28;20045;-70
2023/04/24 01:38:53;;;;;;;36.13;6.55;;;;;;;;;;5042075;28;20044;-69
2023/04/24 01:41:21;;;;;;;28.85;5.50;;;;;;;;;;5010764;28;20496;-70
2023/04/24 01:43:47;;;;;;;34.95;5.50;;;;;;;;;;5014677;28;20043;-70
2023/04/24 01:46:15;;;;;;;27.08;4.50;;;;;;;;;;5007423;28;20064;-70
2023/04/24 01:48:41;;;;;;;29.75;4.32;;;;;;;;;;5018183;28;20374;-71
2023/04/24 01:51:08;;;;;;;43.08;5.00;;;;;;;;;;5008306;28;20628;-71
2023/04/24 01:53:36;;;;;;;47.78;5.43;;;;;;;;;;5011789;28;20037;-70
2023/04/24 01:56:02;;;;;;;32.45;4.55;;;;;;;;;;5041443;28;20110;-70
2023/04/24 01:58:27;;;;;;;24.52;3.72;;;;;;;;;;5011462;28;20513;-70
2023/04/24 02:00:55;;;;;;;30.75;4.18;;;;;;;;;;5005973;28;20042;-71
2023/04/24 02:03:20;;;;;;;30.70;4.30;;;;;;;;;;5008746;28;20037;-70
2023/04/24 02:05:46;;;;;;;37.08;5.20;;;;;;;;;;5040586;28;20053;-70
2023/04/24 02:08:11;;;;;;;34.75;4.93;;;;;;;;;;5008527;28;20418;-70
2023/04/24 02:10:36;;;;;;;43.30;5.78;;;;;;;;;;5040898;28;20113;-70
2023/04/24 02:13:02;;;;;;;31.58;4.45;;;;;;;;;;5041704;28;20048;-69
2023/04/24 02:15:27;;;;;;;33.90;4.38;;;;;;;;;;5010033;28;20937;-69
2023/04/24 02:17:55;;;;;;;28.88;4.13;;;;;;;;;;5010119;28;20460;-71
2023/04/24 02:20:20;;;;;;;22.80;3.22;;;;;;;;;;5009296;28;20053;-71
2023/04/24 02:22:45;;;;;;;31.92;3.67;;;;;;;;;;5009227;28;20034;-70
2023/04/24 02:25:13;;;;;;;23.92;3.15;;;;;;;;;;5039608;28;20130;-70
2023/04/24 02:27:41;;;;;;;30.83;3.30;;;;;;;;;;5010620;28;20041;-70
2023/04/24 02:30:07;;;;;;;26.38;3.10;;;;;;;;;;5038971;28;20897;-71
2023/04/24 02:32:35;;;;;;;21.42;3.03;;;;;;;;;;5014956;28;20033;-70
2023/04/24 02:35:01;;;;;;;24.70;3.03;;;;;;;;;;5011928;28;20172;-70
2023/04/24 02:37:26;;;;;;;38.92;4.38;;;;;;;;;;5041465;28;20037;-70
2023/04/24 02:39:51;;;;;;;32.85;4.05;;;;;;;;;;5041255;28;20095;-71
2023/04/24 02:42:16;;;;;;;37.13;3.28;;;;;;;;;;5009091;28;20128;-71
2023/04/24 02:44:44;;;;;;;25.48;2.90;;;;;;;;;;5010622;28;20085;-69
2023/04/24 02:47:09;;;;;;;19.42;2.95;;;;;;;;;;5009466;28;20141;-70
2023/04/24 02:49:34;;;;;;;23.77;2.83;;;;;;;;;;5010124;28;20998;-70
2023/04/24 02:52:00;;;;;;;22.80;3.03;;;;;;;;;;5009614;28;20036;-70
2023/04/24 02:54:25;;;;;;;28.67;2.80;;;;;;;;;;5009065;28;20559;-71
2023/04/24 02:56:50;;;;;;;30.77;3.42;;;;;;;;;;5040959;28;20120;-71
2023/04/24 02:59:16;;;;;;;22.58;3.28;;;;;;;;;;5008769;28;20030;-72
2023/04/24 03:01:43;;;;;;;24.25;2.70;;;;;;;;;;5009641;28;20072;-71
2023/04/24 03:04:10;;;;;;;26.60;3.17;;;;;;;;;;5009085;28;20034;-70
2023/04/24 03:06:35;;;;;;;21.73;2.78;;;;;;;;;;5007259;28;20558;-70
2023/04/24 03:09:01;;;;;;;23.60;2.95;;;;;;;;;;5008838;28;20091;-71
2023/04/24 03:11:26;;;;;;;19.98;2.60;;;;;;;;;;5016220;28;20045;-70
2023/04/24 03:13:51;;;;;;;15.88;2.60;;;;;;;;;;5039125;28;20041;-71
2023/04/24 03:16:17;;;;;;;24.55;3.00;;;;;;;;;;5013732;28;20128;-71
2023/04/24 03:18:42;;;;;;;23.27;2.75;;;;;;;;;;5009212;28;20041;-71
2023/04/24 03:21:07;;;;;;;21.23;2.53;;;;;;;;;;5010728;28;20084;-71
2023/04/24 03:23:32;;;;;;;19.80;2.47;;;;;;;;;;5009451;28;20046;-71
2023/04/24 03:25:58;;;;;;;18.33;3.03;;;;;;;;;;5009753;28;20091;-71
2023/04/24 03:28:25;;;;;;;14.57;2.25;;;;;;;;;;5004972;28;20565;-71
2023/04/24 03:30:53;;;;;;;19.60;2.20;;;;;;;;;;5007108;28;20033;-71
2023/04/24 03:33:18;;;;;;;13.82;2.20;;;;;;;;;;5006827;28;20038;-70
2023/04/24 03:35:43;;;;;;;22.45;3.13;;;;;;;;;;5008000;28;22488;-71
2023/04/24 03:38:08;;;;;;;12.20;2.22;;;;;;;;;;5038438;28;20576;-71
2023/04/24 03:40:34;;;;;;;21.60;3.80;;;;;;;;;;5027378;28;20064;-71
2023/04/24 03:42:59;;;;;;;21.85;2.60;;;;;;;;;;5008675;28;20049;-70
2023/04/24 03:45:25;;;;;;;17.35;2.97;;;;;;;;;;5038129;28;20041;-70
2023/04/24 03:47:50;;;;;;;11.35;2.78;;;;;;;;;;5009475;28;20044;-70
2023/04/24 03:50:15;;;;;;;18.80;3.33;;;;;;;;;;5008965;28;20037;-71
2023/04/24 03:52:40;;;;;;;12.25;2.55;;;;;;;;;;5002775;28;20044;-69
2023/04/24 03:55:06;;;;;;;22.42;3.85;;;;;;;;;;4987986;28;20589;-69
2023/04/24 03:57:33;;;;;;;11.85;2.63;;;;;;;;;;5002444;28;20048;-69
2023/04/24 04:00:04;;;;;;;14.57;2.60;;;;;;;;;;4988883;28;20042;-69
2023/04/24 04:02:29;;;;;;;16.38;2.58;;;;;;;;;;5021308;28;20048;-69
2023/04/24 04:04:54;;;;;;;20.65;3.22;;;;;;;;;;4986965;28;20030;-71
2023/04/24 04:07:20;;;;;;;12.02;3.13;;;;;;;;;;4989771;28;20449;-71
2023/04/24 04:09:47;;;;;;;18.42;5.22;;;;;;;;;;4990507;28;20471;-70
2023/04/24 04:12:12;;;;;;;19.00;5.70;;;;;;;;;;4990468;28;20037;-68
2023/04/24 04:14:38;;;;;;;17.65;5.97;;;;;;;;;;4989981;28;20566;-69
2023/04/24 04:17:03;;;;;;;22.30;4.53;;;;;;;;;;4985956;28;20515;-70
2023/04/24 04:19:31;;;;;;;18.50;3.33;;;;;;;;;;4988531;28;20050;-70
2023/04/24 04:22:01;;;;;;;16.75;4.05;;;;;;;;;;4991442;28;20040;-68
2023/04/24 04:24:26;;;;;;;16.48;4.72;;;;;;;;;;4994946;28;20033;-71
2023/04/24 04:26:57;;;;;;;15.45;4.72;;;;;;;;;;5009005;28;20085;-70
2023/04/24 04:29:25;;;;;;;20.05;4.88;;;;;;;;;;4994336;28;20697;-70
2023/04/24 04:31:51;;;;;;;10.98;4.38;;;;;;;;;;4996656;28;20068;-67
2023/04/24 04:34:16;;;;;;;20.25;6.72;;;;;;;;;;4991703;28;20127;-67
2023/04/24 04:36:42;;;;;;;19.60;7.03;;;;;;;;;;4991276;28;20034;-66
2023/04/24 04:39:08;;;;;;;23.40;8.93;;;;;;;;;;4993252;28;20056;-68
2023/04/24 04:41:34;;;;;;;31.98;10.65;;;;;;;;;;4991154;28;20110;-67
2023/04/24 04:44:00;;;;;;;34.85;14.43;;;;;;;;;;5011768;28;20064;-66
2023/04/24 04:46:25;;;;;;;36.08;15.32;;;;;;;;;;5040396;28;20124;-66
2023/04/24 04:48:51;;;;;;;27.95;14.10;;;;;;;;;;5041675;28;20033;-67
2023/04/24 04:51:19;;;;;;;31.52;13.77;;;;;;;;;;5034724;28;20174;-68
2023/04/24 04:53:45;;;;;;;51.15;16.92;;;;;;;;;;4989558;28;20034;-67
2023/04/24 04:56:10;;;;;;;62.45;25.23;;;;;;;;;;4991380;28;20118;-69
2023/04/24 04:58:35;;;;;;;69.22;29.23;;;;;;;;;;4991386;28;20034;-67
2023/04/24 05:01:01;;;;;;;65.32;27.92;;;;;;;;;;4989614;28;20038;-67
2023/04/24 05:03:29;;;;;;;69.60;28.45;;;;;;;;;;5025528;28;20033;-68
2023/04/24 05:05:54;;;;;;;77.07;27.80;;;;;;;;;;5010576;28;20033;-68
2023/04/24 05:08:20;;;;;;;53.53;24.50;;;;;;;;;;5039593;28;20095;-69
2023/04/24 05:10:45;;;;;;;55.40;24.67;;;;;;;;;;5012083;28;20112;-69
2023/04/24 05:13:12;;;;;;;55.00;24.58;;;;;;;;;;5039425;28;20508;-71
2023/04/24 05:15:38;;;;;;;67.55;25.52;;;;;;;;;;5011020;28;20022;-69
2023/04/24 05:18:05;;;;;;;53.28;23.70;;;;;;;;;;5009975;28;20061;-72
2023/04/24 05:20:30;;;;;;;51.80;24.52;;;;;;;;;;5010778;28;22259;-70
2023/04/24 05:22:56;;;;;;;51.33;23.13;;;;;;;;;;5011583;28;20037;-73
2023/04/24 05:25:21;;;;;;;49.10;22.33;;;;;;;;;;5015965;28;20049;-69
2023/04/24 05:27:46;;;;;;;49.30;21.38;;;;;;;;;;5045764;28;20038;-69
2023/04/24 05:30:12;;;;;;;41.28;19.52;;;;;;;;;;5040874;28;21544;-70
2023/04/24 05:32:37;;;;;;;46.67;20.40;;;;;;;;;;5013998;28;20037;-70
2023/04/24 05:35:03;;;;;;;37.67;18.35;;;;;;;;;;5009821;28;20140;-70
2023/04/24 05:37:28;;;;;;;43.80;18.02;;;;;;;;;;5031080;28;20064;-69
2023/04/24 05:39:53;;;;;;;44.60;18.20;;;;;;;;;;5010874;28;20037;-68
2023/04/24 05:42:18;;;;;;;40.72;17.58;;;;;;;;;;5008708;28;20037;-70
2023/04/24 05:44:46;;;;;;;39.85;18.13;;;;;;;;;;5042160;28;20115;-70
2023/04/24 05:47:11;;;;;;;51.88;18.70;;;;;;;;;;5033776;28;20075;-69
2023/04/24 05:49:36;;;;;;;48.85;18.40;;;;;;;;;;5010108;28;20124;-69
2023/04/24 05:52:03;;;;;;;47.58;15.88;;;;;;;;;;5008162;28;20044;-69
2023/04/24 05:54:29;;;;;;;42.42;16.08;;;;;;;;;;5011092;28;20041;-69
2023/04/24 05:56:55;;;;;;;35.80;14.77;;;;;;;;;;5009623;28;20498;-67
2023/04/24 05:59:21;;;;;;;38.63;14.50;;;;;;;;;;5010837;28;20037;-67
2023/04/24 06:01:46;;;;;;;34.92;14.65;;;;;;;;;;5005880;28;21041;-65
2023/04/24 06:04:13;;;;;;;35.35;14.90;;;;;;;;;;5009744;28;20782;-67
2023/04/24 06:06:38;;;;;;;41.40;13.70;;;;;;;;;;5009069;28;20440;-67
2023/04/24 06:09:04;;;;;;;41.72;13.23;;;;;;;;;;5013136;28;20065;-68
2023/04/24 06:11:29;;;;;;;40.25;13.55;;;;;;;;;;5006379;28;20042;-67
2023/04/24 06:13:54;;;;;;;36.00;13.60;;;;;;;;;;5010104;28;20174;-68
2023/04/24 06:16:22;;;;;;;36.72;11.90;;;;;;;;;;5038731;28;20046;-69
2023/04/24 06:18:47;;;;;;;40.25;11.63;;;;;;;;;;5009970;28;20051;-66
2023/04/24 06:21:12;;;;;;;36.13;11.25;;;;;;;;;;5014137;28;20042;-69
2023/04/24 06:23:38;;;;;;;40.42;11.55;;;;;;;;;;5039900;28;20095;-66
2023/04/24 06:26:03;;;;;;;33.72;10.10;;;;;;;;;;5007447;28;20069;-68
2023/04/24 06:28:28;;;;;;;41.35;10.98;;;;;;;;;;5008698;28;20075;-67
2023/04/24 06:30:53;;;;;;;43.05;11.55;;;;;;;;;;5008542;28;21737;-67
2023/04/24 06:33:21;;;;;;;46.40;10.27;;;;;;;;;;5040394;28;20037;-70
2023/04/24 06:35:46;;;;;;;40.95;10.18;;;;;;;;;;5008324;28;20040;-69
2023/04/24 06:38:12;;;;;;;33.30;9.48;;;;;;;;;;5009495;28;20037;-66
2023/04/24 06:40:37;;;;;;;42.17;9.50;;;;;;;;;;5009446;28;20033;-68
2023/04/24 06:43:02;;;;;;;40.58;9.25;;;;;;;;;;5017095;28;20767;-68
2023/04/24 06:45:28;;;;;;;33.10;8.15;;;;;;;;;;4983714;28;20056;-67
2023/04/24 06:47:54;;;;;;;39.22;8.45;;;;;;;;;;5019709;28;20037;-68
2023/04/24 06:50:21;;;;;;;45.60;9.05;;;;;;;;;;5018176;28;20041;-67
2023/04/24 06:52:47;;;;;;;36.50;8.38;;;;;;;;;;4991709;28;20057;-70
2023/04/24 06:55:12;;;;;;;41.05;7.45;;;;;;;;;;4992483;28;20149;-67
2023/04/24 06:57:37;;;;;;;35.47;6.95;;;;;;;;;;4988683;28;20060;-68
2023/04/24 07:00:04;;;;;;;44.72;8.18;;;;;;;;;;4988517;28;20034;-67
2023/04/24 07:02:30;;;;;;;33.65;6.30;;;;;;;;;;4989008;28;20087;-67
2023/04/24 07:04:55;;;;;;;41.22;5.93;;;;;;;;;;4987678;28;20033;-67
2023/04/24 07:07:21;;;;;;;42.88;7.35;;;;;;;;;;4986961;28;20129;-68
2023/04/24 07:09:50;;;;;;;35.35;5.55;;;;;;;;;;4989521;28;20084;-67
2023/04/24 07:12:20;;;;;;;32.03;5.65;;;;;;;;;;4990691;28;20563;-69
2023/04/24 07:14:45;;;;;;;30.02;5.53;;;;;;;;;;4988967;28;20042;-65
2023/04/24 07:17:13;;;;;;;31.77;6.55;;;;;;;;;;4994464;28;20026;-67
2023/04/24 07:19:40;;;;;;;36.45;6.13;;;;;;;;;;4988473;28;20038;-69
2023/04/24 07:22:05;;;;;;;41.63;6.55;;;;;;;;;;4987625;28;20057;-72
2023/04/24 07:24:32;;;;;;;38.15;6.45;;;;;;;;;;4989209;28;20038;-70
2023/04/24 07:26:57;;;;;;;39.47;6.78;;;;;;;;;;4990391;28;20092;-68
2023/04/24 07:29:23;;;;;;;39.95;7.35;;;;;;;;;;4988871;28;20033;-68
2023/04/24 07:31:48;;;;;;;35.53;5.70;;;;;;;;;;4989612;28;20033;-68
2023/04/24 07:34:13;;;;;;;32.47;5.47;;;;;;;;;;4986477;28;20041;-70
2023/04/24 07:36:38;;;;;;;26.35;4.82;;;;;;;;;;4986704;28;20061;-69
2023/04/24 07:39:08;;;;;;;24.50;4.60;;;;;;;;;;4988523;28;20044;-69
2023/04/24 07:41:33;;;;;;;43.22;4.72;;;;;;;;;;4981808;28;20077;-68
2023/04/24 07:43:58;;;;;;;30.80;4.32;;;;;;;;;;4980266;28;20240;-69
2023/04/24 07:46:24;;;;;;;25.88;4.75;;;;;;;;;;4984766;28;20057;-68
2023/04/24 07:48:49;;;;;;;28.30;4.93;;;;;;;;;;4981894;28;20041;-69
2023/04/24 07:51:15;;;;;;;30.48;5.15;;;;;;;;;;4984002;28;20101;-70
2023/04/24 07:53:40;;;;;;;27.20;4.90;;;;;;;;;;5007315;28;20148;-68
2023/04/24 07:56:08;;;;;;;24.40;4.75;;;;;;;;;;5002227;28;20037;-68
2023/04/24 07:58:34;;;;;;;23.90;4.40;;;;;;;;;;5006401;28;20443;-71
2023/04/24 08:00:59;;;;;;;28.08;4.25;;;;;;;;;;5003946;28;20037;-71
2023/04/24 08:03:25;;;;;;;27.05;4.63;;;;;;;;;;5005656;28;20041;-71
2023/04/24 08:05:50;;;;;;;29.38;4.95;;;;;;;;;;5005371;28;20045;-71
2023/04/24 08:08:17;;;;;;;26.42;4.63;;;;;;;;;;5003038;28;20332;-72
2023/04/24 08:10:43;;;;;;;25.65;5.13;;;;;;;;;;5006603;28;20059;-74
2023/04/24 08:13:08;;;;;;;28.90;4.43;;;;;;;;;;5004885;28;20034;-73
2023/04/24 08:15:33;;;;;;;29.65;5.50;;;;;;;;;;5001653;28;20170;-73
2023/04/24 08:17:58;;;;;;;25.30;5.20;;;;;;;;;;5011711;28;20055;-75
2023/04/24 08:20:24;;;;;;;26.02;4.80;;;;;;;;;;5037268;28;20121;-72
2023/04/24 08:22:50;;;;;;;26.80;4.60;;;;;;;;;;5007494;28;20037;-72
2023/04/24 08:25:15;;;;;;;30.75;4.65;;;;;;;;;;5035630;28;20076;-77
2023/04/24 08:27:40;;;;;;;23.30;4.10;;;;;;;;;;5035034;28;20051;-74
2023/04/24 08:30:06;;;;;;;23.85;3.90;;;;;;;;;;5004671;28;20041;-73
2023/04/24 08:32:32;;;;;;;34.28;5.28;;;;;;;;;;5007658;28;20036;-75
2023/04/24 08:34:57;;;;;;;27.42;4.50;;;;;;;;;;5006685;28;20644;-75
2023/04/24 08:37:23;;;;;;;26.75;4.72;;;;;;;;;;5038251;28;20034;-74
2023/04/24 08:39:51;;;;;;;19.58;3.40;;;;;;;;;;5034607;28;20088;-74
2023/04/24 08:42:17;;;;;;;18.73;3.60;;;;;;;;;;5020891;28;20041;-75
2023/04/24 08:44:43;;;;;;;24.55;3.70;;;;;;;;;;5036914;28;20044;-73
2023/04/24 08:47:08;;;;;;;25.17;5.22;;;;;;;;;;5003279;28;20096;-73
2023/04/24 08:49:35;;;;;;;31.35;4.82;;;;;;;;;;5020713;28;20065;-73
2023/04/24 08:52:06;;;;;;;24.55;4.60;;;;;;;;;;5003470;28;20045;-75
2023/04/24 08:54:33;;;;;;;36.38;5.93;;;;;;;;;;5005869;28;20041;-74
2023/04/24 08:57:03;;;;;;;32.67;4.32;;;;;;;;;;5005735;28;20041;-74
2023/04/24 08:59:29;;;;;;;24.98;3.70;;;;;;;;;;5004913;28;20045;-73
2023/04/24 09:01:54;;;;;;;20.90;4.47;;;;;;;;;;5005141;28;20477;-75
2023/04/24 09:04:21;;;;;;;23.77;4.18;;;;;;;;;;5004795;28;20037;-74
2023/04/24 09:06:49;;;;;;;20.20;3.70;;;;;;;;;;5001434;28;20131;-74
2023/04/24 09:09:16;;;;;;;16.55;3.35;;;;;;;;;;5037337;28;20052;-74
2023/04/24 09:11:44;;;;;;;14.90;3.67;;;;;;;;;;5039135;28;20130;-76
2023/04/24 09:14:10;;;;;;;23.90;3.45;;;;;;;;;;5029929;28;20045;-73
2023/04/24 09:16:35;;;;;;;22.92;4.00;;;;;;;;;;5004968;28;20042;-73
2023/04/24 09:19:01;;;;;;;20.67;3.63;;;;;;;;;;5039560;28;20045;-73
2023/04/24 09:21:31;;;;;;;16.77;3.35;;;;;;;;;;5012107;28;20130;-72
2023/04/24 09:24:00;;;;;;;15.07;2.95;;;;;;;;;;5007509;28;20049;-76
2023/04/24 09:26:28;;;;;;;14.60;2.85;;;;;;;;;;5038558;28;20050;-71
2023/04/24 09:28:54;;;;;;;17.90;3.75;;;;;;;;;;5027068;28;20075;-76
2023/04/24 09:31:21;;;;;;;13.55;2.78;;;;;;;;;;5008026;28;20427;-71
2023/04/24 09:33:53;;;;;;;21.45;3.50;;;;;;;;;;5010719;28;20797;-74
2023/04/24 09:36:18;;;;;;;14.35;2.80;;;;;;;;;;5011071;28;20037;-74
2023/04/24 09:38:44;;;;;;;17.02;3.47;;;;;;;;;;5023560;28;20040;-74
2023/04/24 09:41:16;;;;;;;18.00;3.70;;;;;;;;;;5011993;28;20037;-76
2023/04/24 09:43:43;;;;;;;20.70;3.80;;;;;;;;;;5007514;28;20168;-72
2023/04/24 09:46:09;;;;;;;18.75;2.72;;;;;;;;;;5004768;28;20050;-77
2023/04/24 09:48:38;;;;;;;18.38;2.78;;;;;;;;;;5039532;28;20459;-77
2023/04/24 09:51:04;;;;;;;18.35;2.88;;;;;;;;;;5006518;28;20037;-75
2023/04/24 09:53:30;;;;;;;14.10;2.70;;;;;;;;;;5008261;28;20039;-79
2023/04/24 09:55:56;;;;;;;16.13;2.53;;;;;;;;;;5010171;28;20052;-75
2023/04/24 09:58:26;;;;;;;16.92;3.45;;;;;;;;;;5010713;28;20033;-79
2023/04/24 10:00:53;;;;;;;22.20;3.50;;;;;;;;;;5015861;28;22188;-73
2023/04/24 10:03:18;;;;;;;13.27;2.78;;;;;;;;;;5009152;28;20048;-77
2023/04/24 10:05:45;;;;;;;20.60;2.50;;;;;;;;;;5041251;28;20609;-75
2023/04/24 10:08:11;;;;;;;15.85;3.20;;;;;;;;;;5011063;28;20041;-75
2023/04/24 10:10:43;;;;;;;20.70;3.85;;;;;;;;;;5009316;28;20550;-74
2023/04/24 10:13:12;;;;;;;10.90;2.40;;;;;;;;;;5010271;28;20037;-76
2023/04/24 10:15:38;;;;;;;15.25;2.03;;;;;;;;;;5007860;28;20054;-69
2023/04/24 10:18:07;;;;;;;13.25;2.10;;;;;;;;;;5009782;28;20938;-74
2023/04/24 10:20:33;;;;;;;17.23;3.08;;;;;;;;;;5009040;28;20060;-73
2023/04/24 10:22:59;;;;;;;15.48;2.40;;;;;;;;;;5038916;28;20429;-72
2023/04/24 10:25:28;;;;;;;15.55;2.28;;;;;;;;;;5008872;28;20041;-75
2023/04/24 10:27:59;;;;;;;13.27;2.42;;;;;;;;;;5005269;28;20064;-75
2023/04/24 10:30:29;;;;;;;16.90;2.38;;;;;;;;;;5008528;28;20482;-73
2023/04/24 10:32:54;;;;;;;17.98;2.95;;;;;;;;;;5039600;28;20037;-75
2023/04/24 10:35:22;;;;;;;10.55;2.22;;;;;;;;;;5041179;28;20493;-76
2023/04/24 10:37:52;;;;;;;11.65;2.47;;;;;;;;;;4989734;28;20479;-78
2023/04/24 10:40:18;;;;;;;14.50;1.90;;;;;;;;;;4987424;28;20045;-77
2023/04/24 10:42:46;;;;;;;18.58;2.50;;;;;;;;;;4992599;28;20037;-77
2023/04/24 10:45:21;;;;;;;17.60;3.35;;;;;;;;;;5017154;28;20545;-68
2023/04/24 10:47:57;;;;;;;21.42;2.97;;;;;;;;;;4986464;28;20026;-68
2023/04/24 10:50:22;;;;;;;19.00;3.03;;;;;;;;;;5016335;28;20080;-67
2023/04/24 10:52:48;;;;;;;13.57;2.45;;;;;;;;;;5023627;28;20071;-70
2023/04/24 10:55:17;;;;;;;12.73;2.35;;;;;;;;;;5007441;28;21225;-70
2023/04/24 10:58:04;;;;;;;8.40;1.90;;;;;;;;;;4988044;28;20034;-69
2023/04/24 11:00:30;;;;;;;13.82;2.35;;;;;;;;;;4992328;28;20582;-71
2023/04/24 11:02:57;;;;;;;11.18;1.92;;;;;;;;;;4989675;28;20048;-68
2023/04/24 11:05:22;;;;;;;15.20;2.30;;;;;;;;;;4988813;28;20523;-70
2023/04/24 11:08:06;;;;;;;19.50;2.60;;;;;;;;;;4987882;28;20077;-69
2023/04/24 11:10:31;;;;;;;19.15;2.50;;;;;;;;;;4987493;28;20034;-72
2023/04/24 11:12:57;;;;;;;20.05;3.55;;;;;;;;;;4987897;28;20131;-70
2023/04/24 11:15:22;;;;;;;12.30;2.30;;;;;;;;;;4983840;28;20544;-69
2023/04/24 11:17:47;;;;;;;17.63;2.72;;;;;;;;;;5019080;28;20037;-69
2023/04/24 11:20:17;;;;;;;14.70;2.72;;;;;;;;;;5015354;28;20110;-69
2023/04/24 11:22:42;;;;;;;23.90;2.70;;;;;;;;;;4986633;28;20042;-69
2023/04/24 11:25:08;;;;;;;21.55;3.50;;;;;;;;;;4984728;28;20096;-69
2023/04/24 11:27:41;;;;;;;22.13;4.10;;;;;;;;;;4983302;28;20037;-70
2023/04/24 11:30:09;;;;;;;17.70;3.20;;;;;;;;;;5016419;28;20155;-66
2023/04/24 11:32:47;;;;;;;16.50;3.05;;;;;;;;;;4984327;28;20550;-71
2023/04/24 11:35:20;;;;;;;17.42;3.03;;;;;;;;;;5015593;28;20081;-70
2023/04/24 11:37:47;;;;;;;16.38;3.47;;;;;;;;;;5017935;28;20072;-70
2023/04/24 11:40:17;;;;;;;22.13;3.78;;;;;;;;;;5008233;28;21999;-73
2023/04/24 11:42:43;;;;;;;20.42;3.80;;;;;;;;;;5039142;28;20106;-71
2023/04/24 11:45:09;;;;;;;31.85;4.63;;;;;;;;;;5007097;28;20048;-73
2023/04/24 11:47:38;;;;;;;31.98;4.70;;;;;;;;;;4989049;28;20548;-70
2023/04/24 11:50:04;;;;;;;33.83;5.80;;;;;;;;;;4989527;28;20038;-70
2023/04/24 11:52:30;;;;;;;28.85;4.50;;;;;;;;;;4989306;28;20048;-72
2023/04/24 11:54:56;;;;;;;31.25;5.03;;;;;;;;;;4989221;28;20137;-70
2023/04/24 11:57:22;;;;;;;25.83;4.88;;;;;;;;;;4983220;28;20050;-72
2023/04/24 11:59:47;;;;;;;22.63;3.72;;;;;;;;;;4982878;28;20742;-72
2023/04/24 12:02:29;;;;;;;26.60;4.13;;;;;;;;;;4982827;28;20045;-71
2023/04/24 12:04:56;;;;;;;21.73;4.38;;;;;;;;;;4978570;28;20042;-72
2023/04/24 12:07:22;;;;;;;27.08;4.32;;;;;;;;;;4979679;28;20466;-71
2023/04/24 12:09:49;;;;;;;26.42;4.43;;;;;;;;;;4980224;28;20044;-71
2023/04/24 12:12:17;;;;;;;22.05;4.07;;;;;;;;;;5007681;28;20053;-69
2023/04/24 12:14:49;;;;;;;26.70;4.55;;;;;;;;;;4982955;28;20057;-73
2023/04/24 12:17:17;;;;;;;26.27;4.53;;;;;;;;;;4985771;28;20076;-71
2023/04/24 12:19:46;;;;;;;24.42;4.30;;;;;;;;;;4985167;28;20073;-70
2023/04/24 12:22:12;;;;;;;38.08;5.50;;;;;;;;;;4985767;28;20045;-71
2023/04/24 12:24:55;;;;;;;21.92;4.35;;;;;;;;;;5016456;28;20137;-73
2023/04/24 12:27:20;;;;;;;23.40;4.40;;;;;;;;;;5002508;28;20061;-72
2023/04/24 12:29:55;;;;;;;32.22;5.18;;;;;;;;;;5007545;28;20270;-71
2023/04/24 12:32:20;;;;;;;30.92;5.20;;;;;;;;;;5015039;28;20045;-66
2023/04/24 12:34:45;;;;;;;29.10;6.15;;;;;;;;;;4984766;28;20749;-71
2023/04/24 12:37:11;;;;;;;27.02;5.72;;;;;;;;;;4984195;28;20042;-70
2023/04/24 12:39:37;;;;;;;26.95;6.22;;;;;;;;;;5012384;28;20117;-71
2023/04/24 12:42:02;;;;;;;25.55;5.15;;;;;;;;;;4988416;28;20883;-66
2023/04/24 12:44:31;;;;;;;22.63;4.50;;;;;;;;;;4989529;28;20521;-71
2023/04/24 12:46:59;;;;;;;28.80;4.20;;;;;;;;;;4987134;28;20047;-73
2023/04/24 12:49:24;;;;;;;21.85;4.63;;;;;;;;;;4981159;28;20073;-68
2023/04/24 12:51:49;;;;;;;24.63;4.65;;;;;;;;;;4987848;28;20048;-67
2023/04/24 12:54:15;;;;;;;21.70;4.63;;;;;;;;;;4987454;28;20053;-67
2023/04/24 12:56:42;;;;;;;34.38;5.30;;;;;;;;;;5019825;28;20088;-73
2023/04/24 12:59:07;;;;;;;26.83;4.75;;;;;;;;;;4988344;28;20372;-72
2023/04/24 13:01:33;;;;;;;24.00;5.05;;;;;;;;;;4992375;28;20091;-74
2023/04/24 13:03:58;;;;;;;20.10;4.40;;;;;;;;;;5008204;28;20124;-69
2023/04/24 13:06:23;;;;;;;17.65;4.50;;;;;;;;;;5005696;28;20073;-70
2023/04/24 13:08:49;;;;;;;18.10;4.10;;;;;;;;;;5008215;28;20033;-68
2023/04/24 13:11:16;;;;;;;26.35;4.93;;;;;;;;;;5036980;28;20044;-72
2023/04/24 13:13:42;;;;;;;24.42;4.68;;;;;;;;;;5009515;28;20030;-72
2023/04/24 13:16:07;;;;;;;26.83;4.82;;;;;;;;;;5009174;28;22261;-74
2023/04/24 13:18:32;;;;;;;34.80;5.88;;;;;;;;;;5009507;28;20085;-73
2023/04/24 13:20:58;;;;;;;25.05;4.63;;;;;;;;;;5008940;28;20037;-74
2023/04/24 13:23:26;;;;;;;18.85;4.05;;;;;;;;;;5033657;28;20113;-74
2023/04/24 13:25:51;;;;;;;25.88;4.20;;;;;;;;;;5040151;28;20041;-70
2023/04/24 13:28:16;;;;;;;22.70;4.57;;;;;;;;;;5042656;28;20041;-72
2023/04/24 13:30:44;;;;;;;22.10;4.85;;;;;;;;;;5008806;28;20545;-74
2023/04/24 13:33:12;;;;;;;25.13;4.07;;;;;;;;;;5008762;28;20037;-73
2023/04/24 13:35:40;;;;;;;31.80;4.43;;;;;;;;;;5010615;28;20048;-74
2023/04/24 13:38:06;;;;;;;23.17;4.50;;;;;;;;;;5011999;28;20038;-73
2023/04/24 13:40:31;;;;;;;23.40;5.25;;;;;;;;;;5041306;28;20061;-73
2023/04/24 13:42:57;;;;;;;31.55;5.82;;;;;;;;;;5008508;28;20644;-74
2023/04/24 13:45:22;;;;;;;27.02;5.05;;;;;;;;;;5008839;28;20037;-72
2023/04/24 13:47:50;;;;;;;35.28;5.80;;;;;;;;;;5010712;28;20030;-73
2023/04/24 13:50:15;;;;;;;26.48;5.20;;;;;;;;;;5009203;28;20125;-72
2023/04/24 13:52:43;;;;;;;30.23;5.70;;;;;;;;;;5030894;28;20121;-71
2023/04/24 13:55:08;;;;;;;29.23;5.40;;;;;;;;;;5013628;28;20033;-70
2023/04/24 13:57:36;;;;;;;27.98;5.18;;;;;;;;;;5009633;28;20665;-71
2023/04/24 14:00:03;;;;;;;30.63;6.18;;;;;;;;;;5009643;28;20052;-72
2023/04/24 14:02:29;;;;;;;25.92;5.13;;;;;;;;;;5007724;28;20037;-69
2023/04/24 14:04:54;;;;;;;37.67;5.70;;;;;;;;;;5009506;28;20057;-73
2023/04/24 14:07:19;;;;;;;32.85;5.70;;;;;;;;;;5007881;28;20049;-71
2023/04/24 14:09:45;;;;;;;22.05;4.45;;;;;;;;;;5040260;28;20200;-68
2023/04/24 14:12:10;;;;;;;35.55;5.82;;;;;;;;;;5009240;28;20097;-71
2023/04/24 14:14:35;;;;;;;34.90;6.07;;;;;;;;;;5040310;28;20052;-75
2023/04/24 14:17:00;;;;;;;32.20;5.80;;;;;;;;;;5009183;28;20144;-72
2023/04/24 14:19:26;;;;;;;33.92;5.95;;;;;;;;;;5024660;28;20040;-72
2023/04/24 14:21:51;;;;;;;43.72;6.45;;;;;;;;;;5023261;28;21006;-71
2023/04/24 14:24:19;;;;;;;31.67;5.97;;;;;;;;;;5009077;28;20372;-72